Aviation Digital Data Service (ADDS)

Output produced by TAFs form (1320 UTC 25 October 2014)
found at http://www.aviationweather.gov/adds/tafs/
 
KGFL 251141Z 2512/2612 23004KT 1/4SM FG VV002 
     TEMPO 2512/2514 3SM BR SCT002 SCT250 
     FM251400 21004KT P6SM SKC 
     FM251500 22006KT P6SM SCT035 
     FM251800 22007KT P6SM BKN040 BKN080 
     FM252300 23006KT P6SM VCSH SCT025 OVC040 
     FM260400 24007KT 5SM BR OVC035 
     FM260900 27010KT P6SM OVC035